sensor_id;sensor_type;location;lat;lon;timestamp;temperature;humidity
27858;DHT22;16852;51.446;6.528;2023-04-03T00:00:42;5.00;99.90
27858;DHT22;16852;51.446;6.528;2023-04-03T00:02:43;4.90;99.90
27858;DHT22;16852;51.446;6.528;2023-04-03T00:04:43;4.90;99.90
27858;DHT22;16852;51.446;6.528;2023-04-03T00:06:44;4.90;99.90
27858;DHT22;16852;51.446;6.528;2023-04-03T00:08:44;4.90;99.90
27858;DHT22;16852;51.446;6.528;2023-04-03T00:10:45;4.90;99.90
27858;DHT22;16852;51.446;6.528;2023-04-03T00:12:45;4.90;99.90
27858;DHT22;16852;51.446;6.528;2023-04-03T00:14:46;4.80;99.90
27858;DHT22;16852;51.446;6.528;2023-04-03T00:16:46;4.80;99.90
27858;DHT22;16852;51.446;6.528;2023-04-03T00:18:47;4.70;99.90
27858;DHT22;16852;51.446;6.528;2023-04-03T00:20:48;4.70;99.90
27858;DHT22;16852;51.446;6.528;2023-04-03T00:22:49;4.70;99.90
27858;DHT22;16852;51.446;6.528;2023-04-03T00:24:49;4.60;99.90
27858;DHT22;16852;51.446;6.528;2023-04-03T00:26:50;4.60;99.90
27858;DHT22;16852;51.446;6.528;2023-04-03T00:28:51;4.60;99.90
27858;DHT22;16852;51.446;6.528;2023-04-03T00:30:52;4.50;99.90
27858;DHT22;16852;51.446;6.528;2023-04-03T00:32:52;4.40;99.90
27858;DHT22;16852;51.446;6.528;2023-04-03T00:34:53;4.40;99.90
27858;DHT22;16852;51.446;6.528;2023-04-03T00:36:53;4.40;99.90
27858;DHT22;16852;51.446;6.528;2023-04-03T00:38:54;4.40;99.90
27858;DHT22;16852;51.446;6.528;2023-04-03T00:40:55;4.40;99.90
27858;DHT22;16852;51.446;6.528;2023-04-03T00:42:57;4.40;99.90
27858;DHT22;16852;51.446;6.528;2023-04-03T00:47:02;4.40;99.90
27858;DHT22;16852;51.446;6.528;2023-04-03T00:49:03;4.40;99.90
27858;DHT22;16852;51.446;6.528;2023-04-03T00:51:07;4.40;99.90
27858;DHT22;16852;51.446;6.528;2023-04-03T00:53:14;4.40;99.90
27858;DHT22;16852;51.446;6.528;2023-04-03T00:55:16;4.40;99.90
27858;DHT22;16852;51.446;6.528;2023-04-03T00:57:17;4.40;99.90
27858;DHT22;16852;51.446;6.528;2023-04-03T00:59:31;4.40;99.90
27858;DHT22;16852;51.446;6.528;2023-04-03T01:01:32;4.40;99.90
27858;DHT22;16852;51.446;6.528;2023-04-03T01:03:33;4.40;99.90
27858;DHT22;16852;51.446;6.528;2023-04-03T01:05:34;4.40;99.90
27858;DHT22;16852;51.446;6.528;2023-04-03T01:07:35;4.40;99.90
27858;DHT22;16852;51.446;6.528;2023-04-03T01:09:38;4.40;99.90
27858;DHT22;16852;51.446;6.528;2023-04-03T01:11:39;4.40;99.90
27858;DHT22;16852;51.446;6.528;2023-04-03T01:13:39;4.40;99.90
27858;DHT22;16852;51.446;6.528;2023-04-03T01:15:41;4.30;99.90
27858;DHT22;16852;51.446;6.528;2023-04-03T01:17:45;4.30;99.90
27858;DHT22;16852;51.446;6.528;2023-04-03T01:19:48;4.30;99.90
27858;DHT22;16852;51.446;6.528;2023-04-03T01:22:05;4.30;99.90
27858;DHT22;16852;51.446;6.528;2023-04-03T01:24:25;4.30;99.90
27858;DHT22;16852;51.446;6.528;2023-04-03T01:26:28;4.30;99.90
27858;DHT22;16852;51.446;6.528;2023-04-03T01:28:32;4.30;99.90
27858;DHT22;16852;51.446;6.528;2023-04-03T01:30:39;4.20;99.90
27858;DHT22;16852;51.446;6.528;2023-04-03T01:32:41;4.30;99.90
27858;DHT22;16852;51.446;6.528;2023-04-03T01:34:42;4.20;99.90
27858;DHT22;16852;51.446;6.528;2023-04-03T01:36:42;4.20;99.90
27858;DHT22;16852;51.446;6.528;2023-04-03T01:38:43;4.20;99.90
27858;DHT22;16852;51.446;6.528;2023-04-03T01:40:44;4.20;99.90
27858;DHT22;16852;51.446;6.528;2023-04-03T01:42:45;4.20;99.90
27858;DHT22;16852;51.446;6.528;2023-04-03T01:44:45;4.30;99.90
27858;DHT22;16852;51.446;6.528;2023-04-03T01:46:46;4.20;99.90
27858;DHT22;16852;51.446;6.528;2023-04-03T01:48:47;4.20;99.90
27858;DHT22;16852;51.446;6.528;2023-04-03T01:50:47;4.20;99.90
27858;DHT22;16852;51.446;6.528;2023-04-03T01:52:48;4.20;99.90
27858;DHT22;16852;51.446;6.528;2023-04-03T01:54:49;4.20;99.90
27858;DHT22;16852;51.446;6.528;2023-04-03T01:56:50;4.10;99.90
27858;DHT22;16852;51.446;6.528;2023-04-03T01:58:51;4.00;99.90
27858;DHT22;16852;51.446;6.528;2023-04-03T02:00:52;3.90;99.90
27858;DHT22;16852;51.446;6.528;2023-04-03T02:02:53;3.70;99.90
27858;DHT22;16852;51.446;6.528;2023-04-03T02:04:53;3.70;99.90
27858;DHT22;16852;51.446;6.528;2023-04-03T02:06:55;3.40;99.90
27858;DHT22;16852;51.446;6.528;2023-04-03T02:08:55;3.30;99.90
27858;DHT22;16852;51.446;6.528;2023-04-03T02:10:56;3.30;99.90
27858;DHT22;16852;51.446;6.528;2023-04-03T02:12:56;3.10;99.90
27858;DHT22;16852;51.446;6.528;2023-04-03T02:14:57;2.90;99.90
27858;DHT22;16852;51.446;6.528;2023-04-03T02:16:58;2.90;99.90
27858;DHT22;16852;51.446;6.528;2023-04-03T02:19:01;2.90;99.90
27858;DHT22;16852;51.446;6.528;2023-04-03T02:21:01;2.90;99.90
27858;DHT22;16852;51.446;6.528;2023-04-03T02:23:02;2.80;99.90
27858;DHT22;16852;51.446;6.528;2023-04-03T02:25:03;2.80;99.90
27858;DHT22;16852;51.446;6.528;2023-04-03T02:27:04;2.70;99.90
27858;DHT22;16852;51.446;6.528;2023-04-03T02:29:05;2.70;99.90
27858;DHT22;16852;51.446;6.528;2023-04-03T02:31:06;2.60;99.90
27858;DHT22;16852;51.446;6.528;2023-04-03T02:33:06;2.60;99.90
27858;DHT22;16852;51.446;6.528;2023-04-03T02:35:07;2.60;99.90
27858;DHT22;16852;51.446;6.528;2023-04-03T02:37:08;2.70;99.90
27858;DHT22;16852;51.446;6.528;2023-04-03T02:39:09;2.70;99.90
27858;DHT22;16852;51.446;6.528;2023-04-03T02:41:10;2.70;99.90
27858;DHT22;16852;51.446;6.528;2023-04-03T02:43:11;2.70;99.90
27858;DHT22;16852;51.446;6.528;2023-04-03T02:45:13;2.70;99.90
27858;DHT22;16852;51.446;6.528;2023-04-03T02:47:14;2.70;99.90
27858;DHT22;16852;51.446;6.528;2023-04-03T02:49:15;2.70;99.90
27858;DHT22;16852;51.446;6.528;2023-04-03T02:51:16;2.70;99.90
27858;DHT22;16852;51.446;6.528;2023-04-03T02:53:17;2.60;99.90
27858;DHT22;16852;51.446;6.528;2023-04-03T02:55:17;2.60;99.90
27858;DHT22;16852;51.446;6.528;2023-04-03T02:57:18;2.60;99.90
27858;DHT22;16852;51.446;6.528;2023-04-03T02:59:20;2.60;99.90
27858;DHT22;16852;51.446;6.528;2023-04-03T03:01:20;2.60;99.90
27858;DHT22;16852;51.446;6.528;2023-04-03T03:03:21;2.60;99.90
27858;DHT22;16852;51.446;6.528;2023-04-03T03:05:22;2.60;99.90
27858;DHT22;16852;51.446;6.528;2023-04-03T03:07:22;2.50;99.90
27858;DHT22;16852;51.446;6.528;2023-04-03T03:09:23;2.50;99.90
27858;DHT22;16852;51.446;6.528;2023-04-03T03:11:23;2.50;99.90
27858;DHT22;16852;51.446;6.528;2023-04-03T03:13:24;2.40;99.90
27858;DHT22;16852;51.446;6.528;2023-04-03T03:15:24;2.50;99.90
27858;DHT22;16852;51.446;6.528;2023-04-03T03:17:25;2.50;99.90
27858;DHT22;16852;51.446;6.528;2023-04-03T03:19:26;2.50;99.90
27858;DHT22;16852;51.446;6.528;2023-04-03T03:21:26;2.50;99.90
27858;DHT22;16852;51.446;6.528;2023-04-03T03:23:28;2.50;99.90
27858;DHT22;16852;51.446;6.528;2023-04-03T03:25:29;2.50;99.90
27858;DHT22;16852;51.446;6.528;2023-04-03T03:27:29;2.50;99.90
27858;DHT22;16852;51.446;6.528;2023-04-03T03:29:30;2.40;99.90
27858;DHT22;16852;51.446;6.528;2023-04-03T03:31:30;2.40;99.90
27858;DHT22;16852;51.446;6.528;2023-04-03T03:33:31;2.40;99.90
27858;DHT22;16852;51.446;6.528;2023-04-03T03:35:32;2.40;99.90
27858;DHT22;16852;51.446;6.528;2023-04-03T03:37:33;2.50;99.90
27858;DHT22;16852;51.446;6.528;2023-04-03T03:39:33;2.40;99.90
27858;DHT22;16852;51.446;6.528;2023-04-03T03:41:34;2.30;99.90
27858;DHT22;16852;51.446;6.528;2023-04-03T03:43:34;2.30;99.90
27858;DHT22;16852;51.446;6.528;2023-04-03T03:45:35;2.30;99.90
27858;DHT22;16852;51.446;6.528;2023-04-03T03:47:36;2.30;99.90
27858;DHT22;16852;51.446;6.528;2023-04-03T03:49:37;2.30;99.90
27858;DHT22;16852;51.446;6.528;2023-04-03T03:51:38;2.30;99.90
27858;DHT22;16852;51.446;6.528;2023-04-03T03:53:39;2.30;99.90
27858;DHT22;16852;51.446;6.528;2023-04-03T03:55:40;2.30;99.90
27858;DHT22;16852;51.446;6.528;2023-04-03T03:57:41;2.30;99.90
27858;DHT22;16852;51.446;6.528;2023-04-03T03:59:42;2.20;99.90
27858;DHT22;16852;51.446;6.528;2023-04-03T04:01:44;2.20;99.90
27858;DHT22;16852;51.446;6.528;2023-04-03T04:03:44;2.30;99.90
27858;DHT22;16852;51.446;6.528;2023-04-03T04:05:45;2.20;99.90
27858;DHT22;16852;51.446;6.528;2023-04-03T04:07:45;2.30;99.90
27858;DHT22;16852;51.446;6.528;2023-04-03T04:09:46;2.30;99.90
27858;DHT22;16852;51.446;6.528;2023-04-03T04:11:47;2.20;99.90
27858;DHT22;16852;51.446;6.528;2023-04-03T04:13:47;2.20;99.90
27858;DHT22;16852;51.446;6.528;2023-04-03T04:15:48;2.20;99.90
27858;DHT22;16852;51.446;6.528;2023-04-03T04:17:49;2.20;99.90
27858;DHT22;16852;51.446;6.528;2023-04-03T04:19:49;2.20;99.90
27858;DHT22;16852;51.446;6.528;2023-04-03T04:21:50;2.10;99.90
27858;DHT22;16852;51.446;6.528;2023-04-03T04:23:50;2.10;99.90
27858;DHT22;16852;51.446;6.528;2023-04-03T04:25:51;2.10;99.90
27858;DHT22;16852;51.446;6.528;2023-04-03T04:27:52;2.10;99.90
27858;DHT22;16852;51.446;6.528;2023-04-03T04:29:52;2.20;99.90
27858;DHT22;16852;51.446;6.528;2023-04-03T04:31:53;2.10;99.90
27858;DHT22;16852;51.446;6.528;2023-04-03T04:33:53;2.20;99.90
27858;DHT22;16852;51.446;6.528;2023-04-03T04:35:54;2.10;99.90
27858;DHT22;16852;51.446;6.528;2023-04-03T04:37:55;2.10;99.90
27858;DHT22;16852;51.446;6.528;2023-04-03T04:39:55;2.00;99.90
27858;DHT22;16852;51.446;6.528;2023-04-03T04:41:56;2.00;99.90
27858;DHT22;16852;51.446;6.528;2023-04-03T04:43:57;2.00;99.90
27858;DHT22;16852;51.446;6.528;2023-04-03T04:46:06;1.90;99.90
27858;DHT22;16852;51.446;6.528;2023-04-03T04:48:07;1.90;99.90
27858;DHT22;16852;51.446;6.528;2023-04-03T04:50:07;1.90;99.90
27858;DHT22;16852;51.446;6.528;2023-04-03T04:52:08;1.90;99.90
27858;DHT22;16852;51.446;6.528;2023-04-03T04:54:09;1.90;99.90
27858;DHT22;16852;51.446;6.528;2023-04-03T04:56:10;1.90;99.90
27858;DHT22;16852;51.446;6.528;2023-04-03T04:58:10;1.90;99.90
27858;DHT22;16852;51.446;6.528;2023-04-03T05:00:11;1.80;99.90
27858;DHT22;16852;51.446;6.528;2023-04-03T05:02:12;1.90;99.90
27858;DHT22;16852;51.446;6.528;2023-04-03T05:04:12;1.90;99.90
27858;DHT22;16852;51.446;6.528;2023-04-03T05:06:13;1.90;99.90
27858;DHT22;16852;51.446;6.528;2023-04-03T05:08:14;2.00;99.90
27858;DHT22;16852;51.446;6.528;2023-04-03T05:10:15;1.90;99.90
27858;DHT22;16852;51.446;6.528;2023-04-03T05:12:16;1.90;99.90
27858;DHT22;16852;51.446;6.528;2023-04-03T05:14:17;1.90;99.90
27858;DHT22;16852;51.446;6.528;2023-04-03T05:16:18;1.80;99.90
27858;DHT22;16852;51.446;6.528;2023-04-03T05:18:18;1.70;99.90
27858;DHT22;16852;51.446;6.528;2023-04-03T05:20:19;1.70;99.90
27858;DHT22;16852;51.446;6.528;2023-04-03T05:22:19;1.70;99.90
27858;DHT22;16852;51.446;6.528;2023-04-03T05:24:20;1.70;99.90
27858;DHT22;16852;51.446;6.528;2023-04-03T05:26:21;1.60;99.90
27858;DHT22;16852;51.446;6.528;2023-04-03T05:28:22;1.70;99.90
27858;DHT22;16852;51.446;6.528;2023-04-03T05:30:22;1.70;99.90
27858;DHT22;16852;51.446;6.528;2023-04-03T05:32:24;1.70;99.90
27858;DHT22;16852;51.446;6.528;2023-04-03T05:34:26;1.70;99.90
27858;DHT22;16852;51.446;6.528;2023-04-03T05:36:27;1.70;99.90
27858;DHT22;16852;51.446;6.528;2023-04-03T05:38:27;1.70;99.90
27858;DHT22;16852;51.446;6.528;2023-04-03T05:40:29;1.70;99.90
27858;DHT22;16852;51.446;6.528;2023-04-03T05:42:29;1.70;99.90
27858;DHT22;16852;51.446;6.528;2023-04-03T05:44:30;1.70;99.90
27858;DHT22;16852;51.446;6.528;2023-04-03T05:46:31;1.80;99.90
27858;DHT22;16852;51.446;6.528;2023-04-03T05:48:31;1.80;99.90
27858;DHT22;16852;51.446;6.528;2023-04-03T05:50:32;1.80;99.90
27858;DHT22;16852;51.446;6.528;2023-04-03T05:52:36;1.80;99.90
27858;DHT22;16852;51.446;6.528;2023-04-03T05:54:37;1.80;99.90
27858;DHT22;16852;51.446;6.528;2023-04-03T05:56:37;1.90;99.90
27858;DHT22;16852;51.446;6.528;2023-04-03T05:58:38;1.90;99.90
27858;DHT22;16852;51.446;6.528;2023-04-03T06:00:38;1.90;99.90
27858;DHT22;16852;51.446;6.528;2023-04-03T06:02:39;1.90;99.90
27858;DHT22;16852;51.446;6.528;2023-04-03T06:04:40;1.90;99.90
27858;DHT22;16852;51.446;6.528;2023-04-03T06:06:48;1.90;99.90
27858;DHT22;16852;51.446;6.528;2023-04-03T06:08:49;2.00;99.90
27858;DHT22;16852;51.446;6.528;2023-04-03T06:10:50;2.00;99.90
27858;DHT22;16852;51.446;6.528;2023-04-03T06:12:51;2.00;99.90
27858;DHT22;16852;51.446;6.528;2023-04-03T06:14:51;2.00;99.90
27858;DHT22;16852;51.446;6.528;2023-04-03T06:16:53;2.10;99.90
27858;DHT22;16852;51.446;6.528;2023-04-03T06:18:54;2.10;99.90
27858;DHT22;16852;51.446;6.528;2023-04-03T06:20:55;2.20;99.90
27858;DHT22;16852;51.446;6.528;2023-04-03T06:22:56;2.20;99.90
27858;DHT22;16852;51.446;6.528;2023-04-03T06:24:57;2.30;99.90
27858;DHT22;16852;51.446;6.528;2023-04-03T06:26:58;2.30;99.90
27858;DHT22;16852;51.446;6.528;2023-04-03T06:28:59;2.40;99.90
27858;DHT22;16852;51.446;6.528;2023-04-03T06:30:59;2.50;99.90
27858;DHT22;16852;51.446;6.528;2023-04-03T06:33:00;2.60;99.90
27858;DHT22;16852;51.446;6.528;2023-04-03T06:35:01;2.80;99.90
27858;DHT22;16852;51.446;6.528;2023-04-03T06:37:01;3.00;99.90
27858;DHT22;16852;51.446;6.528;2023-04-03T06:39:03;3.20;99.90
27858;DHT22;16852;51.446;6.528;2023-04-03T06:41:04;3.60;99.90
27858;DHT22;16852;51.446;6.528;2023-04-03T06:43:04;3.80;99.90
27858;DHT22;16852;51.446;6.528;2023-04-03T06:45:06;4.10;99.90
27858;DHT22;16852;51.446;6.528;2023-04-03T06:47:11;4.40;99.90
27858;DHT22;16852;51.446;6.528;2023-04-03T06:49:13;4.70;99.90
27858;DHT22;16852;51.446;6.528;2023-04-03T06:53:19;4.90;99.90
27858;DHT22;16852;51.446;6.528;2023-04-03T06:55:19;5.00;99.90
27858;DHT22;16852;51.446;6.528;2023-04-03T06:57:20;5.20;99.90
27858;DHT22;16852;51.446;6.528;2023-04-03T06:59:21;5.40;99.90
27858;DHT22;16852;51.446;6.528;2023-04-03T07:01:22;5.50;99.90
27858;DHT22;16852;51.446;6.528;2023-04-03T07:03:22;5.50;99.90
27858;DHT22;16852;51.446;6.528;2023-04-03T07:05:25;5.50;99.90
27858;DHT22;16852;51.446;6.528;2023-04-03T07:07:26;5.70;99.90
27858;DHT22;16852;51.446;6.528;2023-04-03T07:09:26;5.70;99.90
27858;DHT22;16852;51.446;6.528;2023-04-03T07:11:27;5.80;99.90
27858;DHT22;16852;51.446;6.528;2023-04-03T07:13:28;6.00;99.90
27858;DHT22;16852;51.446;6.528;2023-04-03T07:15:29;6.10;99.90
27858;DHT22;16852;51.446;6.528;2023-04-03T07:17:30;5.90;99.90
27858;DHT22;16852;51.446;6.528;2023-04-03T07:19:31;6.10;99.90
27858;DHT22;16852;51.446;6.528;2023-04-03T07:21:32;6.20;99.90
27858;DHT22;16852;51.446;6.528;2023-04-03T07:23:32;6.20;99.90
27858;DHT22;16852;51.446;6.528;2023-04-03T07:25:33;6.40;99.90
27858;DHT22;16852;51.446;6.528;2023-04-03T07:27:34;6.50;99.90
27858;DHT22;16852;51.446;6.528;2023-04-03T07:29:35;6.70;99.90
27858;DHT22;16852;51.446;6.528;2023-04-03T07:31:36;6.90;99.90
27858;DHT22;16852;51.446;6.528;2023-04-03T07:33:37;7.00;99.90
27858;DHT22;16852;51.446;6.528;2023-04-03T07:35:39;6.80;99.90
27858;DHT22;16852;51.446;6.528;2023-04-03T07:37:40;6.80;99.90
27858;DHT22;16852;51.446;6.528;2023-04-03T07:39:44;6.80;99.90
27858;DHT22;16852;51.446;6.528;2023-04-03T07:41:45;6.90;99.90
27858;DHT22;16852;51.446;6.528;2023-04-03T07:43:46;7.00;99.90
27858;DHT22;16852;51.446;6.528;2023-04-03T07:45:48;6.90;99.90
27858;DHT22;16852;51.446;6.528;2023-04-03T07:47:51;6.90;99.90
27858;DHT22;16852;51.446;6.528;2023-04-03T07:49:52;6.80;99.90
27858;DHT22;16852;51.446;6.528;2023-04-03T07:51:52;7.20;99.90
27858;DHT22;16852;51.446;6.528;2023-04-03T07:53:53;7.30;99.90
27858;DHT22;16852;51.446;6.528;2023-04-03T07:55:54;7.20;99.90
27858;DHT22;16852;51.446;6.528;2023-04-03T07:57:56;7.30;99.90
27858;DHT22;16852;51.446;6.528;2023-04-03T07:59:57;7.30;99.90
27858;DHT22;16852;51.446;6.528;2023-04-03T08:01:58;7.20;99.90
27858;DHT22;16852;51.446;6.528;2023-04-03T08:03:59;7.20;99.90
27858;DHT22;16852;51.446;6.528;2023-04-03T08:06:05;7.30;99.90
27858;DHT22;16852;51.446;6.528;2023-04-03T08:08:06;7.40;99.90
27858;DHT22;16852;51.446;6.528;2023-04-03T08:10:08;7.60;99.90
27858;DHT22;16852;51.446;6.528;2023-04-03T08:12:08;7.50;99.90
27858;DHT22;16852;51.446;6.528;2023-04-03T08:14:12;7.70;99.90
27858;DHT22;16852;51.446;6.528;2023-04-03T08:16:20;7.50;99.90
27858;DHT22;16852;51.446;6.528;2023-04-03T08:18:21;7.40;99.90
27858;DHT22;16852;51.446;6.528;2023-04-03T08:20:24;7.30;99.90
27858;DHT22;16852;51.446;6.528;2023-04-03T08:22:26;7.10;99.90
27858;DHT22;16852;51.446;6.528;2023-04-03T08:24:26;7.30;99.90
27858;DHT22;16852;51.446;6.528;2023-04-03T08:26:27;7.30;99.90
27858;DHT22;16852;51.446;6.528;2023-04-03T08:28:28;7.20;99.90
27858;DHT22;16852;51.446;6.528;2023-04-03T08:30:28;7.30;99.90
27858;DHT22;16852;51.446;6.528;2023-04-03T08:32:29;7.30;99.90
27858;DHT22;16852;51.446;6.528;2023-04-03T08:34:30;7.40;99.90
27858;DHT22;16852;51.446;6.528;2023-04-03T08:36:35;7.40;99.90
27858;DHT22;16852;51.446;6.528;2023-04-03T08:38:35;7.50;99.90
27858;DHT22;16852;51.446;6.528;2023-04-03T08:40:38;7.50;99.90
27858;DHT22;16852;51.446;6.528;2023-04-03T08:44:57;7.60;99.90
27858;DHT22;16852;51.446;6.528;2023-04-03T08:49:44;7.60;99.90
27858;DHT22;16852;51.446;6.528;2023-04-03T08:51:49;7.60;99.90
27858;DHT22;16852;51.446;6.528;2023-04-03T08:54:01;7.60;99.90
27858;DHT22;16852;51.446;6.528;2023-04-03T08:56:07;7.70;99.90
27858;DHT22;16852;51.446;6.528;2023-04-03T08:58:29;7.70;99.90
27858;DHT22;16852;51.446;6.528;2023-04-03T09:00:59;7.90;99.90
27858;DHT22;16852;51.446;6.528;2023-04-03T09:03:01;7.80;98.60
27858;DHT22;16852;51.446;6.528;2023-04-03T09:05:05;7.90;96.70
27858;DHT22;16852;51.446;6.528;2023-04-03T09:07:25;7.90;97.60
27858;DHT22;16852;51.446;6.528;2023-04-03T09:09:36;7.80;96.60
27858;DHT22;16852;51.446;6.528;2023-04-03T09:11:44;8.00;97.40
27858;DHT22;16852;51.446;6.528;2023-04-03T09:14:02;8.00;95.30
27858;DHT22;16852;51.446;6.528;2023-04-03T09:16:20;8.10;94.10
27858;DHT22;16852;51.446;6.528;2023-04-03T09:18:30;8.10;95.40
27858;DHT22;16852;51.446;6.528;2023-04-03T09:20:38;8.20;96.80
27858;DHT22;16852;51.446;6.528;2023-04-03T09:22:43;8.20;94.00
27858;DHT22;16852;51.446;6.528;2023-04-03T09:24:47;8.20;90.70
27858;DHT22;16852;51.446;6.528;2023-04-03T09:27:03;8.00;82.10
27858;DHT22;16852;51.446;6.528;2023-04-03T09:29:08;8.10;85.70
27858;DHT22;16852;51.446;6.528;2023-04-03T09:33:21;8.00;89.30
27858;DHT22;16852;51.446;6.528;2023-04-03T09:35:28;8.00;86.10
27858;DHT22;16852;51.446;6.528;2023-04-03T09:37:40;7.90;90.20
27858;DHT22;16852;51.446;6.528;2023-04-03T09:39:53;7.90;85.20
27858;DHT22;16852;51.446;6.528;2023-04-03T09:42:14;8.00;82.60
27858;DHT22;16852;51.446;6.528;2023-04-03T09:44:29;7.90;85.40
27858;DHT22;16852;51.446;6.528;2023-04-03T09:46:32;7.80;85.90
27858;DHT22;16852;51.446;6.528;2023-04-03T09:48:33;7.90;90.70
27858;DHT22;16852;51.446;6.528;2023-04-03T09:50:34;8.00;82.30
27858;DHT22;16852;51.446;6.528;2023-04-03T09:52:35;8.10;79.90
27858;DHT22;16852;51.446;6.528;2023-04-03T09:54:37;8.10;76.40
27858;DHT22;16852;51.446;6.528;2023-04-03T09:56:40;8.00;79.30
27858;DHT22;16852;51.446;6.528;2023-04-03T09:59:05;8.10;81.20
27858;DHT22;16852;51.446;6.528;2023-04-03T10:01:03;8.20;88.00
27858;DHT22;16852;51.446;6.528;2023-04-03T10:03:05;8.10;85.80
27858;DHT22;16852;51.446;6.528;2023-04-03T10:07:34;8.10;82.40
27858;DHT22;16852;51.446;6.528;2023-04-03T10:09:36;8.10;80.00
27858;DHT22;16852;51.446;6.528;2023-04-03T10:14:03;8.20;79.90
27858;DHT22;16852;51.446;6.528;2023-04-03T10:16:12;8.20;80.10
27858;DHT22;16852;51.446;6.528;2023-04-03T10:20:39;8.40;80.80
27858;DHT22;16852;51.446;6.528;2023-04-03T10:25:18;8.30;70.20
27858;DHT22;16852;51.446;6.528;2023-04-03T10:27:42;8.20;69.90
27858;DHT22;16852;51.446;6.528;2023-04-03T10:32:14;8.40;76.30
27858;DHT22;16852;51.446;6.528;2023-04-03T10:34:33;8.30;71.30
27858;DHT22;16852;51.446;6.528;2023-04-03T10:36:51;8.20;72.80
27858;DHT22;16852;51.446;6.528;2023-04-03T10:39:12;8.30;69.10
27858;DHT22;16852;51.446;6.528;2023-04-03T10:43:44;8.30;72.70
27858;DHT22;16852;51.446;6.528;2023-04-03T10:46:16;8.40;72.40
27858;DHT22;16852;51.446;6.528;2023-04-03T10:48:34;8.40;70.20
27858;DHT22;16852;51.446;6.528;2023-04-03T10:50:44;8.40;71.70
27858;DHT22;16852;51.446;6.528;2023-04-03T10:55:34;8.60;72.40
27858;DHT22;16852;51.446;6.528;2023-04-03T10:57:36;8.70;74.50
27858;DHT22;16852;51.446;6.528;2023-04-03T10:59:51;8.50;78.40
27858;DHT22;16852;51.446;6.528;2023-04-03T11:02:26;8.60;79.00
27858;DHT22;16852;51.446;6.528;2023-04-03T11:04:31;8.70;73.50
27858;DHT22;16852;51.446;6.528;2023-04-03T11:06:49;8.90;77.50
27858;DHT22;16852;51.446;6.528;2023-04-03T11:08:52;8.90;74.30
27858;DHT22;16852;51.446;6.528;2023-04-03T11:11:00;9.00;77.90
27858;DHT22;16852;51.446;6.528;2023-04-03T11:13:12;9.00;76.10
27858;DHT22;16852;51.446;6.528;2023-04-03T11:15:19;8.80;71.50
27858;DHT22;16852;51.446;6.528;2023-04-03T11:18:11;8.80;75.50
27858;DHT22;16852;51.446;6.528;2023-04-03T11:20:10;9.00;75.70
27858;DHT22;16852;51.446;6.528;2023-04-03T11:24:32;9.00;74.90
27858;DHT22;16852;51.446;6.528;2023-04-03T11:26:36;9.00;73.80
27858;DHT22;16852;51.446;6.528;2023-04-03T11:28:39;9.10;72.70
27858;DHT22;16852;51.446;6.528;2023-04-03T11:35:17;9.20;74.20
27858;DHT22;16852;51.446;6.528;2023-04-03T11:37:45;9.20;70.80
27858;DHT22;16852;51.446;6.528;2023-04-03T11:40:00;9.00;74.30
27858;DHT22;16852;51.446;6.528;2023-04-03T11:42:24;9.10;77.40
27858;DHT22;16852;51.446;6.528;2023-04-03T11:44:36;9.10;77.60
27858;DHT22;16852;51.446;6.528;2023-04-03T11:47:00;9.20;72.60
27858;DHT22;16852;51.446;6.528;2023-04-03T11:49:00;9.30;77.10
27858;DHT22;16852;51.446;6.528;2023-04-03T11:57:45;9.20;74.00
27858;DHT22;16852;51.446;6.528;2023-04-03T11:59:46;9.20;77.10
27858;DHT22;16852;51.446;6.528;2023-04-03T12:01:54;9.10;74.40
27858;DHT22;16852;51.446;6.528;2023-04-03T12:04:05;9.00;74.50
27858;DHT22;16852;51.446;6.528;2023-04-03T12:08:50;8.90;76.40
27858;DHT22;16852;51.446;6.528;2023-04-03T12:13:16;9.00;83.90
27858;DHT22;16852;51.446;6.528;2023-04-03T12:15:18;8.90;78.50
27858;DHT22;16852;51.446;6.528;2023-04-03T12:17:23;9.10;72.90
27858;DHT22;16852;51.446;6.528;2023-04-03T12:19:37;9.00;75.00
27858;DHT22;16852;51.446;6.528;2023-04-03T12:26:21;9.20;74.90
27858;DHT22;16852;51.446;6.528;2023-04-03T12:28:24;9.20;78.10
27858;DHT22;16852;51.446;6.528;2023-04-03T12:30:29;9.30;75.80
27858;DHT22;16852;51.446;6.528;2023-04-03T12:37:03;9.20;76.30
27858;DHT22;16852;51.446;6.528;2023-04-03T12:39:17;9.30;77.00
27858;DHT22;16852;51.446;6.528;2023-04-03T12:41:38;9.20;82.80
27858;DHT22;16852;51.446;6.528;2023-04-03T12:48:20;9.30;74.00
27858;DHT22;16852;51.446;6.528;2023-04-03T12:50:31;9.30;72.00
27858;DHT22;16852;51.446;6.528;2023-04-03T12:52:38;9.40;72.00
27858;DHT22;16852;51.446;6.528;2023-04-03T12:54:41;9.30;76.10
27858;DHT22;16852;51.446;6.528;2023-04-03T12:56:42;9.30;75.80
27858;DHT22;16852;51.446;6.528;2023-04-03T12:58:42;9.30;75.10
27858;DHT22;16852;51.446;6.528;2023-04-03T13:00:43;9.30;76.50
27858;DHT22;16852;51.446;6.528;2023-04-03T13:02:44;9.30;75.50
27858;DHT22;16852;51.446;6.528;2023-04-03T13:04:46;9.40;72.20
27858;DHT22;16852;51.446;6.528;2023-04-03T13:06:47;9.50;73.80
27858;DHT22;16852;51.446;6.528;2023-04-03T13:08:53;9.50;75.40
27858;DHT22;16852;51.446;6.528;2023-04-03T13:11:01;9.50;78.70
27858;DHT22;16852;51.446;6.528;2023-04-03T13:13:09;9.50;74.60
27858;DHT22;16852;51.446;6.528;2023-04-03T13:15:18;9.30;74.30
27858;DHT22;16852;51.446;6.528;2023-04-03T13:17:19;9.30;74.70
27858;DHT22;16852;51.446;6.528;2023-04-03T13:19:20;9.20;72.20
27858;DHT22;16852;51.446;6.528;2023-04-03T13:21:28;9.30;72.90
27858;DHT22;16852;51.446;6.528;2023-04-03T13:23:29;9.40;71.40
27858;DHT22;16852;51.446;6.528;2023-04-03T13:25:33;9.30;71.30
27858;DHT22;16852;51.446;6.528;2023-04-03T13:27:35;9.30;75.80
27858;DHT22;16852;51.446;6.528;2023-04-03T13:29:37;9.20;76.00
27858;DHT22;16852;51.446;6.528;2023-04-03T13:31:39;9.10;79.70
27858;DHT22;16852;51.446;6.528;2023-04-03T13:34:05;9.20;79.20
27858;DHT22;16852;51.446;6.528;2023-04-03T13:36:18;9.10;77.80
27858;DHT22;16852;51.446;6.528;2023-04-03T13:40:20;9.20;70.90
27858;DHT22;16852;51.446;6.528;2023-04-03T13:42:27;9.20;72.00
27858;DHT22;16852;51.446;6.528;2023-04-03T13:44:36;9.30;71.20
27858;DHT22;16852;51.446;6.528;2023-04-03T13:46:39;9.30;73.00
27858;DHT22;16852;51.446;6.528;2023-04-03T13:48:43;9.40;70.70
27858;DHT22;16852;51.446;6.528;2023-04-03T13:50:56;9.30;70.90
27858;DHT22;16852;51.446;6.528;2023-04-03T13:53:01;9.40;71.70
27858;DHT22;16852;51.446;6.528;2023-04-03T13:55:17;9.30;73.00
27858;DHT22;16852;51.446;6.528;2023-04-03T13:57:18;9.20;74.40
27858;DHT22;16852;51.446;6.528;2023-04-03T13:59:31;9.30;80.20
27858;DHT22;16852;51.446;6.528;2023-04-03T14:01:38;9.30;79.70
27858;DHT22;16852;51.446;6.528;2023-04-03T14:03:50;9.20;79.40
27858;DHT22;16852;51.446;6.528;2023-04-03T14:05:52;9.20;80.50
27858;DHT22;16852;51.446;6.528;2023-04-03T14:07:54;9.30;77.40
27858;DHT22;16852;51.446;6.528;2023-04-03T14:09:55;9.30;73.80
27858;DHT22;16852;51.446;6.528;2023-04-03T14:12:06;9.30;72.90
27858;DHT22;16852;51.446;6.528;2023-04-03T14:14:18;9.20;78.60
27858;DHT22;16852;51.446;6.528;2023-04-03T14:16:22;9.20;79.80